Time;durP1;ratioP1;P1;durP2;ratioP2;P2;SDS_P1;SDS_P2;PMS_P1;PMS_P2;Temp;Humidity;BMP_temperature;BMP_pressure;BME280_temperature;BME280_humidity;BME280_pressure;Samples;Min_cycle;Max_cycle;Signal;HPM_P1;HPM_P2
2021/06/10 00:01:48;;;;;;;6.40;3.20;;;;;;;15.97;60.39;100643.59;102392;1116;81129;-60
2021/06/10 00:03:59;;;;;;;4.40;2.90;;;;;;;15.94;60.57;100647.59;102395;1116;66825;-60
2021/06/10 00:06:06;;;;;;;5.10;3.00;;;;;;;15.90;60.64;100649.09;102397;1116;69821;-60
2021/06/10 00:08:14;;;;;;;4.50;3.20;;;;;;;15.89;60.70;100648.25;102390;1116;85023;-61
2021/06/10 00:10:24;;;;;;;3.50;2.60;;;;;;;15.92;60.66;100647.83;102403;1116;74538;-64
2021/06/10 00:12:32;;;;;;;3.60;2.80;;;;;;;15.96;60.41;100641.94;102424;1116;80992;-62
2021/06/10 00:14:40;;;;;;;6.00;3.20;;;;;;;15.98;60.60;100646.11;102415;1116;66783;-63
2021/06/10 00:16:47;;;;;;;4.80;3.00;;;;;;;16.01;60.52;100645.68;102420;1116;68781;-62
2021/06/10 00:18:56;;;;;;;4.20;3.30;;;;;;;16.04;60.46;100645.22;102397;1116;86149;-62
2021/06/10 00:21:04;;;;;;;4.20;2.70;;;;;;;16.07;60.61;100638.52;102416;1116;76070;-62
2021/06/10 00:23:13;;;;;;;5.70;3.00;;;;;;;16.07;60.45;100649.42;102383;1117;81069;-63
2021/06/10 00:25:25;;;;;;;3.30;2.70;;;;;;;16.08;60.47;100649.19;102416;1116;65170;-64
2021/06/10 00:27:36;;;;;;;3.00;2.70;;;;;;;16.09;60.32;100645.42;102417;1116;69437;-62
2021/06/10 00:29:44;;;;;;;3.60;2.30;;;;;;;16.08;60.31;100648.34;102415;1116;85688;-59
2021/06/10 00:31:51;;;;;;;3.60;2.60;;;;;;;16.07;60.33;100641.25;102403;1116;74638;-59
2021/06/10 00:34:01;;;;;;;3.50;2.40;;;;;;;16.06;60.17;100647.73;102389;1116;80671;-59
2021/06/10 00:36:08;;;;;;;5.40;2.50;;;;;;;16.03;60.12;100637.27;102380;1116;65100;-59
2021/06/10 00:38:16;;;;;;;3.30;2.60;;;;;;;16.00;60.00;100651.33;102378;1116;70002;-62
2021/06/10 00:40:23;;;;;;;2.90;2.50;;;;;;;15.94;60.25;100640.26;102423;1116;85865;-60
2021/06/10 00:42:30;;;;;;;3.50;2.40;;;;;;;15.92;60.11;100645.09;102384;1116;73549;-60
2021/06/10 00:44:38;;;;;;;3.80;2.50;;;;;;;15.91;60.20;100653.47;102374;1114;80412;-60
2021/06/10 00:46:45;;;;;;;3.60;2.40;;;;;;;15.87;60.23;100655.81;102371;1116;66910;-59
2021/06/10 00:48:52;;;;;;;3.60;2.40;;;;;;;15.84;60.36;100650.80;102366;1115;67918;-62
2021/06/10 00:51:00;;;;;;;4.70;2.40;;;;;;;15.86;60.38;100647.84;102394;1114;86646;-62
2021/06/10 00:53:08;;;;;;;4.50;2.80;;;;;;;15.86;60.34;100648.69;102432;1116;74329;-62
2021/06/10 00:55:16;;;;;;;3.10;2.70;;;;;;;15.86;60.56;100636.95;102422;1116;81371;-59
2021/06/10 00:57:24;;;;;;;4.00;2.70;;;;;;;15.88;60.16;100646.57;102396;1116;65459;-59
2021/06/10 00:59:31;;;;;;;3.20;2.40;;;;;;;15.88;60.63;100646.57;102363;1116;68562;-62
2021/06/10 01:01:38;;;;;;;4.70;2.60;;;;;;;15.84;60.52;100642.63;102389;1116;85449;-63
2021/06/10 01:03:45;;;;;;;3.60;2.70;;;;;;;15.82;60.46;100646.63;102426;1116;73311;-59
2021/06/10 01:05:57;;;;;;;3.50;3.00;;;;;;;15.79;60.66;100647.86;102369;1114;81232;-59
2021/06/10 01:08:16;;;;;;;3.70;2.70;;;;;;;15.76;60.57;100647.48;102413;1115;66513;-60
2021/06/10 01:10:34;;;;;;;2.90;2.40;;;;;;;15.72;60.91;100646.23;102406;1115;68626;-60
2021/06/10 01:12:55;;;;;;;4.80;3.00;;;;;;;15.69;60.83;100649.39;102470;1115;86908;-59
2021/06/10 01:15:07;;;;;;;4.00;2.70;;;;;;;15.60;60.85;100654.23;102469;1115;76128;-62
2021/06/10 01:17:15;;;;;;;3.30;2.80;;;;;;;15.58;60.92;100650.06;102486;1115;79916;-62
2021/06/10 01:19:51;;;;;;;3.60;2.80;;;;;;;15.51;61.06;100647.38;102474;1115;69530;-62
2021/06/10 01:22:03;;;;;;;3.60;2.70;;;;;;;15.45;61.24;100656.38;102528;1115;67579;-62
2021/06/10 01:24:29;;;;;;;3.10;2.80;;;;;;;15.43;61.24;100653.03;102492;1115;85500;-59
2021/06/10 01:26:45;;;;;;;4.40;3.10;;;;;;;15.41;61.35;100648.86;102409;1115;74425;-61
2021/06/10 01:28:54;;;;;;;3.40;2.80;;;;;;;15.36;61.41;100652.20;102459;1115;81641;-63
2021/06/10 01:31:07;;;;;;;3.80;3.00;;;;;;;15.31;61.54;100654.73;102458;1115;66165;-62
2021/06/10 01:33:19;;;;;;;3.90;2.60;;;;;;;15.26;61.54;100652.67;102484;1115;68075;-63
2021/06/10 01:35:32;;;;;;;4.50;3.00;;;;;;;15.19;61.64;100661.91;102491;1115;86518;-61
2021/06/10 01:37:44;;;;;;;4.00;3.20;;;;;;;15.11;61.62;100656.66;102479;1115;73650;-59
2021/06/10 01:39:57;;;;;;;3.30;3.00;;;;;;;15.00;61.78;100655.42;102466;1115;81306;-63
2021/06/10 01:42:11;;;;;;;4.40;3.40;;;;;;;14.90;61.93;100652.31;102465;1115;68385;-62
2021/06/10 01:44:20;;;;;;;3.40;2.80;;;;;;;14.85;62.10;100660.28;102515;1115;69268;-60
2021/06/10 01:46:30;;;;;;;3.80;3.10;;;;;;;14.77;62.21;100657.77;102465;1114;86647;-59
2021/06/10 01:48:44;;;;;;;3.60;3.00;;;;;;;14.71;62.44;100664.05;102510;1115;75123;-60
2021/06/10 01:50:55;;;;;;;4.50;2.90;;;;;;;14.63;62.57;100664.26;102474;1115;81276;-58
2021/06/10 01:53:03;;;;;;;4.50;2.80;;;;;;;14.53;62.86;100661.94;102498;1115;65464;-59
2021/06/10 01:55:15;;;;;;;5.60;3.30;;;;;;;14.42;63.11;100662.56;102455;1115;68693;-61
2021/06/10 01:57:23;;;;;;;4.30;3.40;;;;;;;14.34;63.25;100662.77;102500;1115;84538;-61
2021/06/10 01:59:32;;;;;;;4.80;3.60;;;;;;;14.26;63.45;100662.92;102479;1115;75010;-62
2021/06/10 02:01:41;;;;;;;5.40;3.40;;;;;;;14.17;63.73;100662.28;102490;1115;81698;-64
2021/06/10 02:03:50;;;;;;;3.30;3.00;;;;;;;14.09;63.84;100661.66;102457;1115;65386;-58
2021/06/10 02:05:58;;;;;;;6.00;3.40;;;;;;;14.05;64.05;100652.23;102487;1115;69936;-60
2021/06/10 02:08:07;;;;;;;4.40;3.60;;;;;;;13.98;64.30;100645.97;102495;1115;85508;-61
2021/06/10 02:10:20;;;;;;;3.70;3.30;;;;;;;13.90;64.42;100648.88;102430;1115;73921;-59
2021/06/10 02:12:28;;;;;;;6.00;3.60;;;;;;;13.88;64.47;100659.08;102453;1115;81492;-60
2021/06/10 02:14:36;;;;;;;3.10;2.90;;;;;;;13.80;64.65;100648.40;102481;1115;67832;-61
2021/06/10 02:16:46;;;;;;;4.60;3.00;;;;;;;13.74;64.76;100649.21;102484;1115;69131;-59
2021/06/10 02:18:54;;;;;;;3.50;3.00;;;;;;;13.70;64.73;100648.80;102451;1115;85804;-62
2021/06/10 02:21:05;;;;;;;5.10;3.80;;;;;;;13.62;64.93;100643.55;102467;1115;74554;-62
2021/06/10 02:23:12;;;;;;;4.00;3.50;;;;;;;13.57;65.07;100652.28;102476;1115;81710;-61
2021/06/10 02:25:20;;;;;;;3.90;3.30;;;;;;;13.51;65.09;100650.38;102464;1115;65741;-59
2021/06/10 02:27:27;;;;;;;5.10;3.40;;;;;;;13.41;65.24;100655.34;102514;1115;67682;-59
2021/06/10 02:29:34;;;;;;;4.70;3.50;;;;;;;13.32;65.36;100656.55;102476;1115;85447;-62
2021/06/10 02:31:42;;;;;;;4.90;3.70;;;;;;;13.28;65.65;100651.73;102475;1115;74997;-64
2021/06/10 02:33:49;;;;;;;4.20;3.80;;;;;;;13.25;65.85;100655.69;102479;1115;80262;-59
2021/06/10 02:35:57;;;;;;;5.20;4.20;;;;;;;13.17;65.93;100658.56;102473;1115;67063;-58
2021/06/10 02:38:05;;;;;;;4.30;3.90;;;;;;;13.13;66.13;100662.70;102476;1115;68876;-59
2021/06/10 02:40:21;;;;;;;4.10;3.70;;;;;;;13.09;66.38;100656.02;102490;1114;85599;-58
2021/06/10 02:42:28;;;;;;;4.40;3.80;;;;;;;13.02;66.50;100655.92;102477;1115;74599;-60
2021/06/10 02:44:36;;;;;;;4.30;3.50;;;;;;;12.99;66.63;100660.93;102486;1115;81543;-63
2021/06/10 02:46:44;;;;;;;4.60;3.60;;;;;;;12.98;66.71;100656.53;102478;1115;66246;-62
2021/06/10 02:48:55;;;;;;;4.80;3.60;;;;;;;12.94;66.89;100657.95;102477;1115;68850;-62
2021/06/10 02:51:03;;;;;;;4.00;3.50;;;;;;;12.92;67.00;100665.45;102511;1115;85933;-63
2021/06/10 02:53:15;;;;;;;5.40;4.00;;;;;;;12.86;67.15;100667.08;102491;1115;74595;-61
2021/06/10 02:55:24;;;;;;;6.10;3.90;;;;;;;12.80;67.13;100662.44;102421;1115;81433;-61
2021/06/10 02:57:31;;;;;;;5.30;3.60;;;;;;;12.80;67.20;100661.63;102437;1115;67723;-63
2021/06/10 02:59:41;;;;;;;4.10;3.40;;;;;;;12.79;67.35;100659.94;102469;1115;68649;-57
2021/06/10 03:01:51;;;;;;;6.40;4.20;;;;;;;12.82;67.49;100667.69;102468;1115;86581;-61
2021/06/10 03:03:59;;;;;;;6.80;4.10;;;;;;;12.83;67.55;100669.34;102509;1115;75426;-62
2021/06/10 03:06:08;;;;;;;6.10;4.70;;;;;;;12.88;67.76;100675.03;102475;1115;80050;-61
2021/06/10 03:08:18;;;;;;;6.70;4.50;;;;;;;12.94;67.72;100682.36;102464;1115;66803;-62
2021/06/10 03:10:32;;;;;;;5.00;3.60;;;;;;;12.98;67.75;100675.52;102464;1115;69478;-62
2021/06/10 03:12:43;;;;;;;4.30;3.90;;;;;;;13.06;67.89;100688.92;102487;1115;85765;-63
2021/06/10 03:14:55;;;;;;;5.50;3.60;;;;;;;13.13;67.97;100670.83;102523;1115;74842;-60
2021/06/10 03:17:03;;;;;;;5.00;4.10;;;;;;;13.21;67.83;100670.67;102489;1115;80340;-60
2021/06/10 03:19:11;;;;;;;5.20;4.00;;;;;;;13.25;67.92;100671.97;102469;1115;65668;-62
2021/06/10 03:21:18;;;;;;;6.60;4.70;;;;;;;13.30;67.93;100672.20;102467;1115;69410;-63
2021/06/10 03:23:29;;;;;;;7.00;4.20;;;;;;;13.38;67.92;100677.45;102466;1115;84195;-63
2021/06/10 03:25:37;;;;;;;7.20;4.70;;;;;;;13.62;68.21;100667.98;102509;1115;74680;-63
2021/06/10 03:27:45;;;;;;;4.90;4.30;;;;;;;14.24;67.87;100675.89;102476;1115;82159;-61
2021/06/10 03:29:52;;;;;;;4.60;3.90;;;;;;;15.36;67.07;100671.26;102538;1115;67063;-61
2021/06/10 03:32:00;;;;;;;5.70;4.60;;;;;;;16.19;65.61;100667.57;102482;1115;68913;-62
2021/06/10 03:34:11;;;;;;;7.40;4.30;;;;;;;17.22;64.81;100668.02;102486;1115;86041;-62
2021/06/10 03:36:20;;;;;;;4.70;4.10;;;;;;;18.59;63.58;100665.41;102498;1115;73872;-61
2021/06/10 03:38:29;;;;;;;7.10;4.40;;;;;;;19.92;61.86;100664.36;102491;1115;81495;-63
2021/06/10 03:40:40;;;;;;;4.20;3.80;;;;;;;21.01;60.04;100665.77;102476;1115;66660;-58
2021/06/10 03:42:48;;;;;;;5.70;3.80;;;;;;;21.90;57.96;100662.93;102498;1115;69354;-59
2021/06/10 03:44:55;;;;;;;4.20;3.60;;;;;;;22.71;55.87;100662.72;102528;1115;85782;-64
2021/06/10 03:47:04;;;;;;;5.50;4.00;;;;;;;23.41;53.91;100670.68;102464;1115;74642;-64
2021/06/10 03:49:13;;;;;;;6.10;3.90;;;;;;;23.96;52.69;100664.59;102510;1115;81728;-62
2021/06/10 03:51:22;;;;;;;5.80;4.00;;;;;;;24.29;50.88;100671.61;102492;1115;65356;-63
2021/06/10 03:53:32;;;;;;;4.20;3.50;;;;;;;24.79;49.84;100670.00;102473;1115;68757;-63
2021/06/10 03:55:43;;;;;;;4.30;3.70;;;;;;;25.18;48.56;100674.73;102483;1115;85431;-63
2021/06/10 03:57:50;;;;;;;4.20;3.80;;;;;;;25.55;47.38;100673.54;102493;1115;73689;-62
2021/06/10 04:00:01;;;;;;;4.20;3.60;;;;;;;25.98;46.29;100670.08;102472;1115;80645;-59
2021/06/10 04:02:08;;;;;;;4.00;3.50;;;;;;;26.56;45.02;100659.22;102397;1116;66367;-59
2021/06/10 04:04:17;;;;;;;4.00;3.60;;;;;;;26.61;43.61;100665.55;102539;1115;67249;-59
2021/06/10 04:06:30;;;;;;;5.10;3.50;;;;;;;27.00;42.85;100671.09;102486;1115;86106;-60
2021/06/10 04:08:37;;;;;;;4.40;3.50;;;;;;;27.30;42.38;100668.02;102463;1115;73782;-58
2021/06/10 04:10:44;;;;;;;3.50;3.10;;;;;;;27.68;41.80;100669.00;102517;1115;79873;-59
2021/06/10 04:12:51;;;;;;;4.00;3.50;;;;;;;27.97;40.69;100672.50;102455;1115;65991;-58
2021/06/10 04:14:59;;;;;;;4.80;3.40;;;;;;;28.23;39.81;100670.25;102510;1115;68935;-61
2021/06/10 04:17:07;;;;;;;4.20;3.60;;;;;;;28.56;39.45;100662.80;102453;1115;85597;-59
2021/06/10 04:19:14;;;;;;;3.90;3.00;;;;;;;28.71;38.33;100667.30;102500;1115;75338;-63
2021/06/10 04:21:22;;;;;;;5.70;2.90;;;;;;;28.96;37.58;100667.72;102468;1115;81209;-63
2021/06/10 04:23:32;;;;;;;3.80;3.40;;;;;;;28.90;37.44;100660.58;102440;1114;66377;-62
2021/06/10 04:25:39;;;;;;;3.90;3.20;;;;;;;29.06;36.73;100659.18;102437;1115;68312;-63
2021/06/10 04:27:47;;;;;;;5.00;3.80;;;;;;;29.11;36.04;100661.90;102485;1115;85371;-63
2021/06/10 04:29:56;;;;;;;4.10;3.30;;;;;;;29.40;35.81;100656.09;102494;1115;75071;-60
2021/06/10 04:32:08;;;;;;;3.40;3.10;;;;;;;29.52;35.44;100661.98;102454;1115;80319;-60
2021/06/10 04:34:15;;;;;;;4.60;3.20;;;;;;;29.78;35.33;100665.05;102474;1115;66095;-62
2021/06/10 04:36:25;;;;;;;4.20;3.00;;;;;;;30.04;34.62;100669.00;102472;1115;67946;-64
2021/06/10 04:38:36;;;;;;;3.80;3.40;;;;;;;30.10;34.18;100658.56;102446;1115;84858;-64
2021/06/10 04:40:43;;;;;;;4.90;3.40;;;;;;;30.34;33.86;100661.91;102474;1115;74233;-60
2021/06/10 04:42:50;;;;;;;4.20;3.30;;;;;;;30.66;34.04;100664.50;102466;1115;82105;-59
2021/06/10 04:44:58;;;;;;;3.50;2.90;;;;;;;30.96;33.68;100660.98;102455;1115;67042;-60
2021/06/10 04:47:06;;;;;;;4.30;3.70;;;;;;;31.28;33.28;100659.03;102489;1115;68095;-60
2021/06/10 04:49:13;;;;;;;4.10;3.40;;;;;;;31.53;32.96;100664.75;102488;1114;85105;-59
2021/06/10 04:51:25;;;;;;;4.90;3.20;;;;;;;31.50;32.16;100664.59;102447;1115;75186;-59
2021/06/10 04:53:32;;;;;;;3.30;3.10;;;;;;;31.80;32.05;100663.72;102473;1115;81374;-61
2021/06/10 04:55:43;;;;;;;5.00;3.20;;;;;;;31.91;31.44;100667.86;102422;1116;66266;-59
2021/06/10 04:57:50;;;;;;;3.90;3.20;;;;;;;31.95;31.81;100663.26;102466;1115;69500;-58
2021/06/10 04:59:58;;;;;;;6.40;3.90;;;;;;;32.12;31.20;100668.09;102484;1115;85830;-58
2021/06/10 05:02:05;;;;;;;6.80;2.90;;;;;;;32.31;30.83;100671.41;102478;1115;75998;-59
2021/06/10 05:04:14;;;;;;;4.60;3.40;;;;;;;32.46;31.13;100662.55;102448;1115;79895;-64
2021/06/10 05:06:22;;;;;;;3.30;2.60;;;;;;;32.74;30.27;100668.67;102463;1115;66603;-64
2021/06/10 05:08:32;;;;;;;3.50;3.00;;;;;;;32.68;29.83;100670.81;102500;1115;68446;-66
2021/06/10 05:10:39;;;;;;;5.00;2.90;;;;;;;32.59;29.92;100669.98;102453;1115;87039;-65
2021/06/10 05:12:46;;;;;;;3.90;3.00;;;;;;;32.84;29.66;100668.31;102471;1115;74586;-64
2021/06/10 05:14:53;;;;;;;4.10;2.60;;;;;;;33.11;29.47;100667.97;102459;1115;79941;-59
2021/06/10 05:17:00;;;;;;;4.90;2.70;;;;;;;33.19;29.19;100667.12;102393;1115;65419;-59
2021/06/10 05:19:08;;;;;;;5.00;2.90;;;;;;;33.31;29.48;100665.60;102510;1115;68243;-63
2021/06/10 05:21:17;;;;;;;3.60;2.50;;;;;;;33.43;28.84;100665.73;102473;1115;84397;-66
2021/06/10 05:23:31;;;;;;;3.40;2.80;;;;;;;33.46;28.69;100663.06;102465;1115;74779;-65
2021/06/10 05:25:38;;;;;;;3.80;2.90;;;;;;;33.73;28.55;100659.84;102483;1115;81101;-59
2021/06/10 05:27:45;;;;;;;6.60;2.50;;;;;;;33.69;28.11;100658.89;102473;1114;66475;-60
2021/06/10 05:29:53;;;;;;;3.30;3.00;;;;;;;33.76;27.88;100661.17;102468;1115;67941;-65
2021/06/10 05:32:00;;;;;;;3.30;2.20;;;;;;;33.64;27.98;100661.05;102381;1115;84381;-66
2021/06/10 05:34:08;;;;;;;3.10;2.60;;;;;;;34.05;27.24;100668.73;102423;1116;74924;-61
2021/06/10 05:36:19;;;;;;;3.60;2.70;;;;;;;34.10;26.31;100658.17;102391;1116;80192;-66
2021/06/10 05:38:28;;;;;;;3.50;2.80;;;;;;;33.94;27.15;100657.10;102387;1116;65703;-68
2021/06/10 05:40:36;;;;;;;3.50;2.50;;;;;;;34.27;27.71;100654.43;102395;1115;68006;-60
2021/06/10 05:42:43;;;;;;;2.80;2.50;;;;;;;34.60;27.04;100660.14;102380;1115;85891;-61
2021/06/10 05:44:50;;;;;;;2.50;2.10;;;;;;;34.29;26.80;100650.12;102414;1115;74065;-61
2021/06/10 05:47:00;;;;;;;4.00;2.40;;;;;;;34.24;26.73;100655.94;102403;1115;81190;-61
2021/06/10 05:49:08;;;;;;;5.00;2.50;;;;;;;34.35;26.72;100659.98;102421;1115;66261;-62
2021/06/10 05:51:15;;;;;;;5.20;2.50;;;;;;;34.79;25.99;100654.84;102387;1115;67837;-61
2021/06/10 05:53:24;;;;;;;2.70;2.50;;;;;;;34.48;26.16;100657.22;102391;1115;86328;-60
2021/06/10 05:55:31;;;;;;;3.00;2.20;;;;;;;34.51;25.84;100660.17;102415;1114;74496;-66
2021/06/10 05:57:38;;;;;;;3.70;2.40;;;;;;;34.16;26.00;100656.82;102382;1115;80655;-65
2021/06/10 05:59:47;;;;;;;3.30;2.40;;;;;;;34.10;26.56;100660.98;102392;1115;65576;-65
2021/06/10 06:01:55;;;;;;;3.70;2.30;;;;;;;34.38;26.02;100659.30;102405;1115;68947;-64
2021/06/10 06:04:02;;;;;;;3.20;2.10;;;;;;;34.30;25.80;100648.97;102378;1115;84095;-58
2021/06/10 06:06:09;;;;;;;2.60;2.40;;;;;;;34.66;25.22;100655.96;102396;1115;75970;-59
2021/06/10 06:08:16;;;;;;;3.60;2.80;;;;;;;34.81;26.10;100649.69;102366;1115;81250;-60
2021/06/10 06:10:27;;;;;;;4.80;3.10;;;;;;;35.12;25.68;100663.28;102331;1115;65306;-64
2021/06/10 06:12:36;;;;;;;6.40;2.60;;;;;;;35.19;25.40;100664.34;102393;1115;68591;-66
2021/06/10 06:14:45;;;;;;;2.60;2.40;;;;;;;35.00;24.76;100654.81;102376;1115;86854;-63
2021/06/10 06:16:55;;;;;;;2.80;2.40;;;;;;;35.06;24.80;100665.48;102370;1115;75292;-65
2021/06/10 06:19:04;;;;;;;3.30;2.30;;;;;;;34.57;24.92;100655.20;102381;1115;81962;-58
2021/06/10 06:21:11;;;;;;;2.90;2.10;;;;;;;34.75;25.30;100660.31;102378;1114;65619;-59
2021/06/10 06:23:19;;;;;;;4.00;2.50;;;;;;;35.46;25.09;100660.09;102373;1115;68661;-60
2021/06/10 06:25:27;;;;;;;3.10;2.40;;;;;;;35.48;25.14;100654.92;102381;1116;85223;-60
2021/06/10 06:27:34;;;;;;;2.80;2.30;;;;;;;35.45;24.78;100652.81;102400;1115;75321;-59
2021/06/10 06:29:41;;;;;;;2.70;2.30;;;;;;;35.90;25.00;100661.19;102358;1115;81220;-65
2021/06/10 06:31:49;;;;;;;6.20;2.30;;;;;;;35.87;23.62;100659.07;102376;1115;66996;-65
2021/06/10 06:33:57;;;;;;;3.50;2.50;;;;;;;35.76;23.89;100653.11;102394;1115;69186;-60
2021/06/10 06:36:08;;;;;;;2.60;2.20;;;;;;;36.00;24.06;100655.89;102392;1115;85783;-60
2021/06/10 06:38:16;;;;;;;3.20;2.00;;;;;;;36.04;24.32;100661.67;102417;1115;74614;-58
2021/06/10 06:40:26;;;;;;;2.70;2.30;;;;;;;35.85;23.36;100658.61;102399;1115;80642;-61
2021/06/10 06:42:33;;;;;;;4.90;2.10;;;;;;;35.60;23.38;100659.78;102385;1115;65442;-58
2021/06/10 06:44:41;;;;;;;4.40;2.70;;;;;;;35.39;24.44;100655.03;102424;1115;69083;-64
2021/06/10 06:46:48;;;;;;;4.90;2.20;;;;;;;35.60;23.88;100652.17;102388;1115;86604;-66
2021/06/10 06:48:58;;;;;;;3.50;2.00;;;;;;;35.95;24.12;100658.13;102422;1115;75428;-61
2021/06/10 06:51:06;;;;;;;2.60;2.40;;;;;;;36.26;23.92;100652.70;102381;1115;81614;-59
2021/06/10 06:53:13;;;;;;;2.50;1.90;;;;;;;36.20;23.23;100662.58;102374;1115;65415;-59
2021/06/10 06:55:20;;;;;;;2.80;2.20;;;;;;;36.16;23.73;100656.02;102406;1115;70345;-61
2021/06/10 06:57:29;;;;;;;4.30;2.40;;;;;;;35.97;24.16;100659.41;102398;1114;85259;-58
2021/06/10 06:59:40;;;;;;;2.50;2.10;;;;;;;36.19;23.11;100658.12;102443;1115;74293;-65
2021/06/10 07:01:47;;;;;;;2.60;2.30;;;;;;;35.79;23.36;100655.22;102384;1115;81497;-64
2021/06/10 07:03:54;;;;;;;2.80;2.00;;;;;;;35.80;23.11;100651.22;102404;1115;66838;-59
2021/06/10 07:06:05;;;;;;;2.50;1.90;;;;;;;35.95;23.83;100649.69;102416;1115;68671;-59
2021/06/10 07:08:13;;;;;;;2.50;2.20;;;;;;;36.20;23.39;100656.13;102400;1115;84737;-58
2021/06/10 07:10:20;;;;;;;4.20;1.90;;;;;;;36.17;23.64;100648.39;102412;1115;75262;-65
2021/06/10 07:12:28;;;;;;;4.30;1.90;;;;;;;36.14;24.01;100658.37;102382;1115;81913;-65
2021/06/10 07:14:36;;;;;;;5.00;1.90;;;;;;;36.13;23.74;100650.27;102368;1115;65171;-58
2021/06/10 07:16:43;;;;;;;2.90;2.00;;;;;;;36.01;22.94;100651.89;102408;1116;69419;-59
2021/06/10 07:18:50;;;;;;;2.50;2.10;;;;;;;35.81;22.89;100646.42;102250;1116;85614;-59
2021/06/10 07:20:58;;;;;;;5.70;2.10;;;;;;;35.76;23.31;100649.47;102289;1116;73752;-59
2021/06/10 07:23:08;;;;;;;2.00;1.80;;;;;;;36.32;23.35;100645.66;102375;1116;81269;-59
2021/06/10 07:25:15;;;;;;;2.90;2.30;;;;;;;35.94;23.03;100650.85;102395;1115;66398;-65
2021/06/10 07:27:23;;;;;;;2.10;1.70;;;;;;;35.95;23.35;100658.13;102398;1116;67647;-66
2021/06/10 07:29:30;;;;;;;3.30;2.20;;;;;;;35.89;23.89;100654.73;102388;1116;86324;-60
2021/06/10 07:31:37;;;;;;;2.80;2.00;;;;;;;35.76;24.33;100655.92;102396;1116;75176;-59
2021/06/10 07:33:47;;;;;;;2.20;1.70;;;;;;;35.53;24.00;100658.33;102406;1116;80268;-59
2021/06/10 07:35:55;;;;;;;2.50;1.80;;;;;;;35.47;23.57;100656.91;102405;1117;65906;-59
2021/06/10 07:38:06;;;;;;;2.20;1.80;;;;;;;35.62;23.62;100652.63;102399;1116;68167;-59
2021/06/10 07:40:15;;;;;;;2.70;2.10;;;;;;;35.70;23.69;100656.49;102397;1116;86522;-65
2021/06/10 07:42:22;;;;;;;1.90;1.70;;;;;;;35.92;23.36;100656.02;102408;1116;74860;-66
2021/06/10 07:44:30;;;;;;;2.30;1.70;;;;;;;36.09;24.20;100651.00;102347;1115;81970;-59
2021/06/10 07:46:37;;;;;;;5.20;1.90;;;;;;;35.89;23.35;100654.73;102376;1115;66724;-59
2021/06/10 07:48:44;;;;;;;2.50;1.70;;;;;;;36.20;24.65;100651.33;102407;1115;69173;-65
2021/06/10 07:50:52;;;;;;;2.20;1.70;;;;;;;36.43;23.47;100655.23;102371;1115;85926;-65
2021/06/10 07:52:59;;;;;;;2.80;2.00;;;;;;;36.24;22.83;100657.05;102368;1115;75239;-65
2021/06/10 07:55:09;;;;;;;2.00;1.60;;;;;;;36.10;23.87;100654.61;102402;1115;81845;-65
2021/06/10 07:57:16;;;;;;;5.20;2.30;;;;;;;36.19;24.52;100655.30;102407;1115;65610;-65
2021/06/10 07:59:26;;;;;;;3.70;2.90;;;;;;;36.23;23.18;100650.63;102396;1115;67500;-60
2021/06/10 08:01:33;;;;;;;2.40;1.90;;;;;;;36.38;22.79;100655.49;102399;1115;86228;-62
2021/06/10 08:03:41;;;;;;;2.60;1.70;;;;;;;36.05;22.91;100650.05;102368;1116;75833;-64
2021/06/10 08:05:49;;;;;;;3.70;2.30;;;;;;;36.11;22.95;100650.63;102382;1116;82671;-68
2021/06/10 08:07:57;;;;;;;3.30;2.00;;;;;;;36.14;23.37;100655.55;102398;1115;67121;-65
2021/06/10 08:10:06;;;;;;;3.20;2.30;;;;;;;35.97;23.06;100648.16;102391;1115;68220;-59
2021/06/10 08:12:14;;;;;;;2.80;1.80;;;;;;;36.32;23.21;100651.28;102359;1115;85222;-59
2021/06/10 08:14:24;;;;;;;2.10;1.80;;;;;;;35.93;22.36;100654.86;102400;1115;74852;-58
2021/06/10 08:16:32;;;;;;;4.80;2.00;;;;;;;35.70;21.95;100653.68;102391;1115;81057;-58
2021/06/10 08:18:39;;;;;;;1.30;1.20;;;;;;;35.26;22.40;100656.19;102390;1115;66819;-59
2021/06/10 08:20:46;;;;;;;2.20;1.60;;;;;;;35.16;23.43;100641.77;102395;1115;68965;-60
2021/06/10 08:22:56;;;;;;;2.60;1.70;;;;;;;35.45;22.88;100659.27;102367;1115;85688;-60
2021/06/10 08:25:05;;;;;;;1.60;1.50;;;;;;;35.34;23.04;100644.02;102413;1115;75286;-65
2021/06/10 08:27:13;;;;;;;1.90;1.50;;;;;;;35.58;23.67;100643.24;102362;1115;81747;-66
2021/06/10 08:29:20;;;;;;;2.40;1.60;;;;;;;36.25;23.89;100653.89;102372;1115;67059;-59
2021/06/10 08:31:27;;;;;;;5.90;1.70;;;;;;;36.34;22.59;100659.39;102393;1115;70031;-60
2021/06/10 08:33:35;;;;;;;2.40;1.70;;;;;;;36.17;23.40;100654.84;102421;1115;85667;-59
2021/06/10 08:35:43;;;;;;;3.10;1.80;;;;;;;36.02;22.95;100659.20;102418;1115;74969;-59
2021/06/10 08:37:50;;;;;;;1.80;1.50;;;;;;;36.29;23.14;100646.36;102379;1115;81682;-61
2021/06/10 08:39:57;;;;;;;5.00;2.20;;;;;;;36.29;23.02;100651.20;102386;1114;65492;-68
2021/06/10 08:42:05;;;;;;;4.20;1.70;;;;;;;36.53;22.69;100654.79;102409;1115;67798;-59
2021/06/10 08:44:16;;;;;;;2.20;1.60;;;;;;;36.21;22.19;100650.13;102425;1115;85860;-59
2021/06/10 08:46:26;;;;;;;3.20;1.80;;;;;;;35.91;22.34;100652.38;102272;1115;73273;-60
2021/06/10 08:48:38;;;;;;;2.00;1.40;;;;;;;35.78;22.71;100653.56;102266;1115;81584;-60
2021/06/10 08:50:44;;;;;;;;;;;;;;;35.82;22.38;100648.06;102248;1115;66592;-59
2021/06/10 08:52:52;;;;;;;2.90;1.70;;;;;;;35.73;22.78;100641.73;102287;1115;67418;-59
2021/06/10 08:54:59;;;;;;;4.30;1.50;;;;;;;35.48;22.48;100644.52;102366;1115;85226;-59
2021/06/10 08:57:09;;;;;;;2.60;1.50;;;;;;;35.14;22.41;100647.72;102366;1115;75156;-58
2021/06/10 08:59:16;;;;;;;2.90;1.50;;;;;;;35.46;23.22;100652.45;102389;1115;79975;-58
2021/06/10 09:01:23;;;;;;;2.50;1.40;;;;;;;35.47;21.37;100653.27;102347;1115;65333;-59
2021/06/10 09:03:34;;;;;;;2.00;1.30;;;;;;;34.59;22.12;100655.67;102372;1115;69774;-61
2021/06/10 09:05:42;;;;;;;2.40;1.30;;;;;;;34.26;22.70;100650.80;102415;1115;85809;-64
2021/06/10 09:07:58;;;;;;;4.00;1.50;;;;;;;34.13;22.34;100643.48;102414;1115;74803;-66
2021/06/10 09:10:08;;;;;;;1.40;1.20;;;;;;;33.64;22.79;100661.88;102373;1115;81132;-66
2021/06/10 09:12:20;;;;;;;1.50;1.40;;;;;;;32.67;23.77;100659.92;102402;1115;66191;-64
2021/06/10 09:14:30;;;;;;;1.40;1.30;;;;;;;32.37;24.76;100652.49;102449;1114;68628;-64
2021/06/10 09:16:39;;;;;;;2.10;1.30;;;;;;;32.38;25.34;100648.56;102402;1115;85632;-64
2021/06/10 09:18:59;;;;;;;3.60;1.50;;;;;;;32.23;25.86;100646.23;102441;1115;75537;-64
2021/06/10 09:21:22;;;;;;;1.40;1.10;;;;;;;32.30;26.66;100640.98;102430;1115;79933;-66
2021/06/10 09:23:32;;;;;;;;;;;;;;;32.29;26.37;100650.52;102382;1115;66153;-64
2021/06/10 09:25:40;;;;;;;1.60;1.10;;;;;;;31.61;26.33;100645.58;102398;1115;69992;-61
2021/06/10 09:27:56;;;;;;;2.50;1.60;;;;;;;30.96;27.61;100647.02;102400;1115;86183;-60
2021/06/10 09:30:11;;;;;;;2.50;1.50;;;;;;;30.53;27.68;100642.25;102423;1115;74934;-59
2021/06/10 09:32:22;;;;;;;3.40;1.30;;;;;;;30.24;27.66;100656.58;102403;1115;81322;-58
2021/06/10 09:34:44;;;;;;;2.40;1.70;;;;;;;29.97;28.33;100645.48;102401;1115;66820;-59
2021/06/10 09:36:55;;;;;;;1.80;1.30;;;;;;;29.75;28.83;100644.22;102393;1115;69326;-58
2021/06/10 09:39:17;;;;;;;2.80;1.40;;;;;;;30.30;29.54;100644.15;102355;1115;85412;-68
2021/06/10 09:41:24;;;;;;;2.90;1.70;;;;;;;30.85;30.09;100641.98;102420;1115;74572;-66
2021/06/10 09:43:46;;;;;;;4.40;1.90;;;;;;;30.65;29.37;100645.31;102392;1115;81248;-61
2021/06/10 09:46:01;;;;;;;4.10;1.40;;;;;;;30.56;30.27;100648.02;102391;1115;66851;-58
2021/06/10 09:48:10;;;;;;;4.10;1.90;;;;;;;30.65;29.52;100656.47;102404;1115;68253;-59
2021/06/10 09:50:22;;;;;;;4.60;1.50;;;;;;;30.29;28.83;100648.92;102431;1115;85664;-60
2021/06/10 09:52:29;;;;;;;4.20;1.60;;;;;;;29.66;29.79;100648.06;102415;1114;74139;-59
2021/06/10 09:54:50;;;;;;;2.60;1.60;;;;;;;29.52;29.91;100648.06;102400;1115;82286;-61